Time;durP1;ratioP1;P1;durP2;ratioP2;P2;SDS_P1;SDS_P2;PMS_P1;PMS_P2;Temp;Humidity;BMP_temperature;BMP_pressure;BME280_temperature;BME280_humidity;BME280_pressure;Samples;Min_cycle;Max_cycle;Signal;HPM_P1;HPM_P2
2023/08/24 00:01:08;;;;;;;0.10;0.10;;;20.60;99.90;;;;;;5041651;28;20197;-83
2023/08/24 00:03:34;;;;;;;0.10;0.10;;;20.80;99.90;;;;;;5043485;28;20193;-84
2023/08/24 00:05:59;;;;;;;0.10;0.10;;;20.80;99.90;;;;;;5044260;28;20197;-83
2023/08/24 00:08:25;;;;;;;0.10;0.10;;;20.40;99.90;;;;;;5044249;28;20727;-84
2023/08/24 00:10:50;;;;;;;0.10;0.10;;;20.30;99.90;;;;;;5043401;28;20300;-84
2023/08/24 00:13:17;;;;;;;0.10;0.10;;;20.10;99.90;;;;;;5043502;28;20240;-84
2023/08/24 00:15:43;;;;;;;0.10;0.10;;;20.00;99.90;;;;;;5043735;28;20205;-83
2023/08/24 00:18:08;;;;;;;0.10;0.10;;;19.80;99.90;;;;;;5042338;28;20239;-84
2023/08/24 00:20:34;;;;;;;0.10;0.10;;;19.70;99.90;;;;;;5042361;28;20182;-83
2023/08/24 00:23:00;;;;;;;0.10;0.10;;;19.60;99.90;;;;;;5043830;28;20754;-83
2023/08/24 00:25:25;;;;;;;0.10;0.10;;;19.40;99.90;;;;;;5043348;28;20189;-83
2023/08/24 00:27:53;;;;;;;0.10;0.10;;;19.70;99.90;;;;;;5041893;28;20229;-83
2023/08/24 00:30:19;;;;;;;0.10;0.10;;;19.60;99.90;;;;;;5043113;28;20206;-83
2023/08/24 00:32:44;;;;;;;0.10;0.10;;;19.60;99.90;;;;;;5043257;28;20205;-83
2023/08/24 00:35:10;;;;;;;0.10;0.10;;;19.60;99.90;;;;;;5042042;28;20185;-84
2023/08/24 00:37:36;;;;;;;0.10;0.10;;;19.60;99.90;;;;;;5043053;28;20181;-83
2023/08/24 00:40:07;;;;;;;0.10;0.10;;;19.70;99.90;;;;;;5051411;28;20220;-83
2023/08/24 00:42:33;;;;;;;0.10;0.10;;;19.80;99.90;;;;;;5042431;28;20208;-83
2023/08/24 00:44:58;;;;;;;0.10;0.10;;;20.00;99.90;;;;;;5045077;28;20193;-84
2023/08/24 00:47:24;;;;;;;0.10;0.10;;;20.10;99.90;;;;;;5041962;28;20387;-83
2023/08/24 00:49:50;;;;;;;0.10;0.10;;;19.90;99.90;;;;;;5040745;28;20227;-83
2023/08/24 00:52:16;;;;;;;0.10;0.10;;;19.90;99.90;;;;;;5041365;28;20275;-83
2023/08/24 00:54:42;;;;;;;0.10;0.10;;;19.80;99.90;;;;;;5052713;28;20605;-83
2023/08/24 00:57:08;;;;;;;0.10;0.10;;;19.80;99.90;;;;;;5046609;28;20193;-83
2023/08/24 00:59:34;;;;;;;0.10;0.10;;;19.70;99.90;;;;;;5048162;28;20182;-83
2023/08/24 01:02:01;;;;;;;0.10;0.10;;;19.70;99.90;;;;;;5045499;28;20267;-84
2023/08/24 01:04:27;;;;;;;0.10;0.10;;;19.70;99.90;;;;;;5048141;28;20192;-83
2023/08/24 01:06:52;;;;;;;0.10;0.10;;;19.70;99.90;;;;;;5044928;28;20265;-83
2023/08/24 01:09:20;;;;;;;0.10;0.10;;;19.60;99.90;;;;;;5046774;28;20200;-83
2023/08/24 01:12:06;;;;;;;0.10;0.10;;;19.70;99.90;;;;;;5046114;28;20216;-83
2023/08/24 01:15:02;;;;;;;0.10;0.10;;;19.60;99.90;;;;;;5056298;28;20234;-84
2023/08/24 01:17:30;;;;;;;0.10;0.10;;;19.50;99.90;;;;;;5045732;28;20239;-83
2023/08/24 01:19:56;;;;;;;0.10;0.10;;;19.40;99.90;;;;;;5046766;28;20565;-83
2023/08/24 01:22:27;;;;;;;0.10;0.10;;;19.20;99.90;;;;;;5046301;28;20201;-83
2023/08/24 01:25:16;;;;;;;0.10;0.10;;;19.10;99.90;;;;;;5053262;28;20275;-83
2023/08/24 01:27:43;;;;;;;0.10;0.10;;;19.00;99.90;;;;;;5046498;28;20190;-83
2023/08/24 01:30:09;;;;;;;0.10;0.10;;;19.10;99.90;;;;;;5045787;28;20201;-84
2023/08/24 01:32:36;;;;;;;0.10;0.10;;;19.20;99.90;;;;;;5045396;28;20197;-83
2023/08/24 01:35:03;;;;;;;0.10;0.10;;;19.30;99.90;;;;;;5045493;28;20189;-83
2023/08/24 01:37:29;;;;;;;0.10;0.10;;;19.40;99.90;;;;;;5045320;28;20276;-83
2023/08/24 01:40:11;;;;;;;0.10;0.10;;;19.50;99.90;;;;;;5045712;28;20305;-84
2023/08/24 01:42:42;;;;;;;0.10;0.10;;;19.40;99.90;;;;;;5062268;28;20213;-83
2023/08/24 01:45:09;;;;;;;0.10;0.10;;;19.50;99.90;;;;;;5056147;28;20623;-83
2023/08/24 01:47:37;;;;;;;0.10;0.10;;;19.50;99.90;;;;;;5047003;28;20190;-83
2023/08/24 01:50:04;;;;;;;0.10;0.10;;;19.40;99.90;;;;;;5060712;28;20210;-83
2023/08/24 01:52:31;;;;;;;0.10;0.10;;;19.30;99.90;;;;;;5045485;28;20201;-83
2023/08/24 01:54:56;;;;;;;0.10;0.10;;;19.50;99.90;;;;;;5048221;28;20266;-83
2023/08/24 01:57:22;;;;;;;0.10;0.10;;;19.50;99.90;;;;;;5046317;28;20190;-83
2023/08/24 01:59:47;;;;;;;0.10;0.10;;;19.40;99.90;;;;;;5043379;28;20186;-83
2023/08/24 02:02:13;;;;;;;0.10;0.10;;;19.20;99.90;;;;;;5047112;28;20213;-83
2023/08/24 02:04:38;;;;;;;0.10;0.10;;;19.30;99.90;;;;;;5045559;28;20188;-84
2023/08/24 02:07:04;;;;;;;0.10;0.10;;;19.40;99.90;;;;;;5044491;28;20198;-83
2023/08/24 02:09:30;;;;;;;0.10;0.10;;;19.40;99.90;;;;;;5046124;28;20700;-83
2023/08/24 02:11:56;;;;;;;0.10;0.10;;;19.40;99.90;;;;;;5044878;28;20268;-83
2023/08/24 02:14:21;;;;;;;0.73;0.73;;;19.50;99.90;;;;;;5059351;28;20181;-83
2023/08/24 02:16:48;;;;;;;0.10;0.10;;;19.60;99.90;;;;;;5045570;28;20189;-84
2023/08/24 02:19:13;;;;;;;0.10;0.10;;;19.70;99.90;;;;;;5044218;28;20192;-83
2023/08/24 02:21:39;;;;;;;0.10;0.10;;;19.80;99.90;;;;;;5044704;28;20202;-83
2023/08/24 02:24:05;;;;;;;0.10;0.10;;;19.80;99.90;;;;;;5047194;28;20287;-83
2023/08/24 02:26:30;;;;;;;0.10;0.10;;;19.70;99.90;;;;;;5045353;28;20891;-84
2023/08/24 02:28:57;;;;;;;0.10;0.10;;;19.60;99.90;;;;;;5053964;28;20208;-83
2023/08/24 02:31:23;;;;;;;0.10;0.10;;;19.50;99.90;;;;;;5044438;28;20221;-83
2023/08/24 02:33:48;;;;;;;0.10;0.10;;;19.50;99.90;;;;;;5044767;28;20709;-84
2023/08/24 02:36:14;;;;;;;0.10;0.10;;;19.50;99.90;;;;;;5045627;28;20239;-83
2023/08/24 02:38:40;;;;;;;0.10;0.10;;;19.60;99.90;;;;;;5044505;28;20228;-83
2023/08/24 02:41:07;;;;;;;0.10;0.10;;;19.60;99.90;;;;;;5054927;28;20196;-83
2023/08/24 02:43:33;;;;;;;0.10;0.10;;;19.70;99.90;;;;;;5045910;28;20193;-83
2023/08/24 02:46:03;;;;;;;0.10;0.10;;;19.80;99.90;;;;;;5054326;28;20678;-83
2023/08/24 02:48:29;;;;;;;0.10;0.10;;;19.90;99.90;;;;;;5044095;28;20173;-83
2023/08/24 02:50:59;;;;;;;0.10;0.10;;;20.00;99.90;;;;;;5043282;28;20217;-83
2023/08/24 02:53:25;;;;;;;0.10;0.10;;;20.20;99.90;;;;;;5054329;28;20819;-83
2023/08/24 02:55:51;;;;;;;0.10;0.10;;;20.40;99.90;;;;;;5045360;28;20182;-83
2023/08/24 02:58:17;;;;;;;0.10;0.10;;;20.50;99.90;;;;;;5059717;28;20170;-84
2023/08/24 03:00:42;;;;;;;0.10;0.10;;;20.60;99.90;;;;;;5043446;28;20246;-83
2023/08/24 03:03:08;;;;;;;0.10;0.10;;;20.60;99.90;;;;;;5045745;28;20209;-83
2023/08/24 03:05:33;;;;;;;0.10;0.10;;;20.60;99.90;;;;;;5044881;28;20186;-83
2023/08/24 03:07:59;;;;;;;0.10;0.10;;;20.50;99.90;;;;;;5047410;28;20197;-83
2023/08/24 03:10:25;;;;;;;0.10;0.10;;;20.30;99.90;;;;;;5047744;28;20213;-83
2023/08/24 03:12:50;;;;;;;0.10;0.10;;;20.10;99.90;;;;;;5045821;28;20249;-83
2023/08/24 03:15:16;;;;;;;0.10;0.10;;;20.00;99.90;;;;;;5045275;28;20182;-83
2023/08/24 03:17:42;;;;;;;0.10;0.10;;;19.90;99.90;;;;;;5046088;28;20192;-83
2023/08/24 03:20:08;;;;;;;0.10;0.10;;;19.90;99.90;;;;;;5045599;28;20187;-83
2023/08/24 03:22:34;;;;;;;0.10;0.10;;;19.90;99.90;;;;;;5045572;28;20216;-83
2023/08/24 03:25:00;;;;;;;0.10;0.10;;;19.80;99.90;;;;;;5054453;28;20659;-83
2023/08/24 03:27:25;;;;;;;0.10;0.10;;;19.80;99.90;;;;;;5042664;28;20201;-83
2023/08/24 03:29:53;;;;;;;0.10;0.10;;;19.70;99.90;;;;;;5042968;28;20317;-83
2023/08/24 03:32:18;;;;;;;0.10;0.10;;;19.90;99.90;;;;;;5045557;28;20300;-83
2023/08/24 03:34:44;;;;;;;0.10;0.10;;;20.10;99.90;;;;;;5045077;28;20239;-83
2023/08/24 03:37:10;;;;;;;0.10;0.10;;;20.30;99.90;;;;;;5045618;28;20322;-83
2023/08/24 03:39:39;;;;;;;0.10;0.10;;;20.40;99.90;;;;;;5044878;28;20272;-83
2023/08/24 03:42:05;;;;;;;0.10;0.10;;;20.30;99.90;;;;;;5044668;28;20296;-83
2023/08/24 03:44:30;;;;;;;0.10;0.10;;;20.10;99.90;;;;;;5044142;28;20273;-83
2023/08/24 03:46:56;;;;;;;0.10;0.10;;;20.30;99.90;;;;;;5044942;28;20728;-83
2023/08/24 03:49:21;;;;;;;0.10;0.10;;;20.40;99.90;;;;;;5044357;28;20190;-83
2023/08/24 03:51:47;;;;;;;0.10;0.10;;;20.50;99.90;;;;;;5044454;28;20217;-83
2023/08/24 03:54:12;;;;;;;0.10;0.10;;;20.50;99.90;;;;;;5044168;28;20222;-84
2023/08/24 03:56:39;;;;;;;0.10;0.10;;;20.50;99.90;;;;;;5044513;28;20238;-84
2023/08/24 03:59:04;;;;;;;0.10;0.10;;;20.60;99.90;;;;;;5044227;28;21009;-84
2023/08/24 04:01:30;;;;;;;0.10;0.10;;;20.80;99.90;;;;;;5043557;28;20212;-83
2023/08/24 04:03:55;;;;;;;0.10;0.10;;;20.70;99.90;;;;;;5044030;28;20607;-84
2023/08/24 04:06:21;;;;;;;0.10;0.10;;;20.80;99.90;;;;;;5045648;28;20201;-83
2023/08/24 04:08:46;;;;;;;0.10;0.10;;;20.90;99.90;;;;;;5045820;28;20410;-83
2023/08/24 04:11:12;;;;;;;0.10;0.10;;;21.00;99.90;;;;;;5044388;28;20240;-83
2023/08/24 04:13:38;;;;;;;0.10;0.10;;;21.00;99.90;;;;;;5046234;28;20205;-83
2023/08/24 04:16:03;;;;;;;0.10;0.10;;;21.10;99.90;;;;;;5044270;28;20402;-83
2023/08/24 04:18:29;;;;;;;0.10;0.10;;;21.30;99.90;;;;;;5061337;28;20232;-83
2023/08/24 04:20:55;;;;;;;0.10;0.10;;;21.30;99.90;;;;;;5044354;28;20219;-83
2023/08/24 04:23:26;;;;;;;0.10;0.10;;;21.40;99.90;;;;;;5043789;28;20228;-83
2023/08/24 04:25:51;;;;;;;0.10;0.10;;;21.30;99.90;;;;;;5046214;28;20186;-83
2023/08/24 04:28:17;;;;;;;0.10;0.10;;;21.30;99.90;;;;;;5044596;28;20185;-83
2023/08/24 04:30:50;;;;;;;0.10;0.10;;;21.30;99.90;;;;;;5043342;28;21788;-83
2023/08/24 04:33:15;;;;;;;0.10;0.10;;;21.30;99.90;;;;;;5053824;28;20205;-83
2023/08/24 04:35:41;;;;;;;0.10;0.10;;;20.90;99.90;;;;;;5043662;28;20201;-83
2023/08/24 04:38:06;;;;;;;0.10;0.10;;;20.70;99.90;;;;;;5061006;28;20181;-83
2023/08/24 04:40:49;;;;;;;0.10;0.10;;;20.90;99.90;;;;;;5043819;28;20260;-83
2023/08/24 04:43:15;;;;;;;0.80;0.80;;;21.00;99.90;;;;;;5057491;28;20209;-83
2023/08/24 04:45:40;;;;;;;0.10;0.10;;;21.10;99.90;;;;;;5041862;28;20966;-83
2023/08/24 04:48:06;;;;;;;0.10;0.10;;;21.00;99.90;;;;;;5042148;28;20189;-83
2023/08/24 04:50:31;;;;;;;0.10;0.10;;;21.00;99.90;;;;;;5054465;28;20300;-83
2023/08/24 04:52:57;;;;;;;0.10;0.10;;;21.00;99.90;;;;;;5042394;28;20260;-83
2023/08/24 04:55:23;;;;;;;0.10;0.10;;;21.10;99.90;;;;;;5043327;28;20246;-83
2023/08/24 04:57:48;;;;;;;0.10;0.10;;;21.10;99.90;;;;;;5042735;28;20177;-83
2023/08/24 05:00:16;;;;;;;0.10;0.10;;;21.00;99.90;;;;;;5041576;28;20267;-83
2023/08/24 05:02:42;;;;;;;0.10;0.10;;;21.00;99.90;;;;;;5042575;28;20292;-83
2023/08/24 05:05:10;;;;;;;0.10;0.10;;;20.90;99.90;;;;;;5040529;28;20190;-83
2023/08/24 05:07:37;;;;;;;0.10;0.10;;;20.90;99.90;;;;;;5041941;28;20201;-83
2023/08/24 05:10:03;;;;;;;0.10;0.10;;;20.90;99.90;;;;;;5038756;28;22079;-84
2023/08/24 05:12:29;;;;;;;0.10;0.10;;;20.90;99.90;;;;;;5036926;28;20320;-82
2023/08/24 05:14:55;;;;;;;0.10;0.10;;;20.80;99.90;;;;;;5041454;28;20213;-82
2023/08/24 05:17:21;;;;;;;0.10;0.10;;;20.80;99.90;;;;;;5041310;28;20228;-82
2023/08/24 05:19:52;;;;;;;0.10;0.10;;;20.80;99.90;;;;;;5040298;28;20185;-82
2023/08/24 05:22:17;;;;;;;0.10;0.10;;;20.90;99.90;;;;;;5040626;28;20205;-83
2023/08/24 05:24:42;;;;;;;0.10;0.10;;;20.80;99.90;;;;;;5042885;28;20182;-82
2023/08/24 05:27:08;;;;;;;0.10;0.10;;;20.90;99.90;;;;;;5044082;28;20272;-82
2023/08/24 05:29:33;;;;;;;0.10;0.10;;;20.90;99.90;;;;;;5038442;28;20656;-82
2023/08/24 05:31:59;;;;;;;0.10;0.10;;;21.00;99.90;;;;;;5040441;28;20249;-83
2023/08/24 05:34:25;;;;;;;0.10;0.10;;;21.10;99.90;;;;;;5041193;28;20182;-82
2023/08/24 05:36:50;;;;;;;0.10;0.10;;;21.20;99.90;;;;;;5039867;28;20186;-82
2023/08/24 05:39:16;;;;;;;0.10;0.10;;;21.30;99.90;;;;;;5041528;28;20577;-82
2023/08/24 05:41:42;;;;;;;0.10;0.10;;;21.30;99.90;;;;;;5044270;28;20213;-83
2023/08/24 05:44:07;;;;;;;0.10;0.10;;;21.40;99.90;;;;;;5047414;28;20566;-83
2023/08/24 05:46:33;;;;;;;0.10;0.10;;;21.40;99.90;;;;;;5048480;28;20656;-82
2023/08/24 05:49:02;;;;;;;0.10;0.10;;;21.50;99.90;;;;;;5062039;28;20185;-83
2023/08/24 05:51:27;;;;;;;0.10;0.10;;;21.50;99.90;;;;;;5061053;28;20588;-82
2023/08/24 05:53:55;;;;;;;0.10;0.10;;;21.50;99.90;;;;;;5045458;28;20277;-83
2023/08/24 05:56:22;;;;;;;0.10;0.10;;;21.50;99.90;;;;;;5056210;28;20189;-82
2023/08/24 05:58:48;;;;;;;0.10;0.10;;;21.60;99.90;;;;;;5050510;28;20307;-83
2023/08/24 06:01:14;;;;;;;0.10;0.10;;;21.60;99.90;;;;;;5048106;28;20190;-82
2023/08/24 06:03:39;;;;;;;0.10;0.10;;;21.60;99.90;;;;;;5064873;28;20251;-82
2023/08/24 06:06:05;;;;;;;0.10;0.10;;;21.60;99.90;;;;;;5048422;28;20196;-82
2023/08/24 06:08:31;;;;;;;0.10;0.10;;;21.60;99.90;;;;;;5048337;28;20197;-81
2023/08/24 06:10:58;;;;;;;0.10;0.10;;;21.30;99.90;;;;;;5049345;28;20233;-83
2023/08/24 06:13:23;;;;;;;0.10;0.10;;;21.20;99.90;;;;;;5048419;28;20263;-83
2023/08/24 06:15:49;;;;;;;0.10;0.10;;;21.30;99.90;;;;;;5046465;28;20323;-82
2023/08/24 06:18:15;;;;;;;0.10;0.10;;;21.50;99.90;;;;;;5044699;28;20189;-82
2023/08/24 06:20:41;;;;;;;0.10;0.10;;;21.70;99.90;;;;;;5051283;28;20177;-83
2023/08/24 06:23:07;;;;;;;0.10;0.10;;;21.70;99.90;;;;;;5049275;28;20251;-83
2023/08/24 06:25:33;;;;;;;0.10;0.10;;;21.40;99.90;;;;;;5050914;28;20177;-83
2023/08/24 06:27:59;;;;;;;0.10;0.10;;;20.60;99.90;;;;;;5065987;28;20193;-82
2023/08/24 06:30:25;;;;;;;0.10;0.10;;;20.40;99.90;;;;;;5045589;28;20202;-82
2023/08/24 06:32:51;;;;;;;0.10;0.10;;;20.20;99.90;;;;;;5044602;28;20197;-82
2023/08/24 06:35:16;;;;;;;0.10;0.10;;;20.20;99.90;;;;;;5046941;28;20204;-82
2023/08/24 06:37:43;;;;;;;0.10;0.10;;;20.50;99.90;;;;;;5047735;28;20200;-83
2023/08/24 06:40:09;;;;;;;0.10;0.10;;;20.70;99.90;;;;;;5044110;28;20201;-82
2023/08/24 06:42:34;;;;;;;0.10;0.10;;;20.90;99.90;;;;;;5044750;28;20254;-82
2023/08/24 06:45:00;;;;;;;0.10;0.10;;;21.20;99.90;;;;;;5063351;28;20236;-81
2023/08/24 06:47:25;;;;;;;0.10;0.10;;;21.40;99.90;;;;;;5045560;28;20196;-82
2023/08/24 06:49:51;;;;;;;0.10;0.10;;;21.60;99.90;;;;;;5045579;28;20818;-82
2023/08/24 06:52:17;;;;;;;0.10;0.10;;;21.80;99.90;;;;;;5044771;28;20203;-82
2023/08/24 06:54:42;;;;;;;0.10;0.10;;;21.90;99.90;;;;;;5046990;28;20215;-82
2023/08/24 06:57:08;;;;;;;0.10;0.10;;;21.60;99.90;;;;;;5044136;28;21212;-82
2023/08/24 06:59:33;;;;;;;0.10;0.10;;;21.40;99.90;;;;;;5044803;28;21332;-82
2023/08/24 07:01:59;;;;;;;0.10;0.10;;;21.30;99.90;;;;;;5044310;28;20231;-82
2023/08/24 07:04:26;;;;;;;0.10;0.10;;;21.30;99.90;;;;;;5045366;28;20986;-82
2023/08/24 07:06:52;;;;;;;0.10;0.10;;;21.30;99.90;;;;;;5044206;28;20193;-82
2023/08/24 07:09:18;;;;;;;0.10;0.10;;;21.50;99.90;;;;;;5043989;28;20186;-83
2023/08/24 07:11:44;;;;;;;0.10;0.10;;;21.70;99.90;;;;;;5043023;28;20217;-82
2023/08/24 07:14:09;;;;;;;0.10;0.10;;;21.90;99.90;;;;;;5045954;28;20200;-82
2023/08/24 07:16:35;;;;;;;0.10;0.10;;;22.10;99.90;;;;;;5043547;28;20190;-83
2023/08/24 07:19:00;;;;;;;0.10;0.10;;;22.30;99.90;;;;;;5044557;28;20208;-84
2023/08/24 07:21:26;;;;;;;0.10;0.10;;;22.40;99.90;;;;;;5041767;28;20241;-84
2023/08/24 07:23:51;;;;;;;0.00;0.00;;;22.50;99.90;;;;;;5042828;28;20208;-84
2023/08/24 07:26:17;;;;;;;0.10;0.10;;;22.50;99.90;;;;;;5046650;28;20205;-84
2023/08/24 07:28:43;;;;;;;0.10;0.10;;;22.60;99.90;;;;;;5049162;28;20205;-85
2023/08/24 07:31:10;;;;;;;0.10;0.10;;;22.60;99.90;;;;;;5046707;28;20574;-84
2023/08/24 07:33:38;;;;;;;0.10;0.10;;;22.60;99.90;;;;;;5048357;28;20189;-83
2023/08/24 07:36:04;;;;;;;0.10;0.10;;;22.60;99.90;;;;;;5063353;28;20189;-84
2023/08/24 07:38:30;;;;;;;0.10;0.10;;;22.60;99.90;;;;;;5046259;28;20197;-85
2023/08/24 07:40:57;;;;;;;0.10;0.10;;;22.60;99.90;;;;;;5044154;28;20182;-84
2023/08/24 07:43:22;;;;;;;0.10;0.10;;;22.60;99.90;;;;;;5045828;28;20206;-83
2023/08/24 07:45:48;;;;;;;0.10;0.10;;;22.00;99.90;;;;;;5046756;28;20193;-83
2023/08/24 07:48:13;;;;;;;3.07;2.97;;;21.40;99.90;;;;;;5044065;28;20284;-82
2023/08/24 07:50:39;;;;;;;0.10;0.10;;;21.30;99.90;;;;;;5046736;28;20209;-82
2023/08/24 07:53:04;;;;;;;0.10;0.10;;;21.60;99.90;;;;;;5048560;28;20312;-82
2023/08/24 07:55:30;;;;;;;0.10;0.10;;;21.90;99.90;;;;;;5047074;28;20339;-83
2023/08/24 07:57:55;;;;;;;0.10;0.10;;;22.20;99.90;;;;;;5045172;28;21107;-83
2023/08/24 08:00:22;;;;;;;0.10;0.10;;;22.40;99.90;;;;;;5046817;28;20257;-83
2023/08/24 08:02:51;;;;;;;0.10;0.10;;;22.60;99.90;;;;;;5044404;28;20255;-82
2023/08/24 08:05:17;;;;;;;0.17;0.17;;;22.30;99.90;;;;;;5037348;28;20189;-82
2023/08/24 08:07:43;;;;;;;0.10;0.10;;;21.50;99.90;;;;;;5061275;28;20204;-82
2023/08/24 08:10:09;;;;;;;0.37;0.37;;;21.30;99.90;;;;;;5043250;28;20185;-82
2023/08/24 08:12:35;;;;;;;0.10;0.10;;;21.20;99.90;;;;;;5045832;28;20198;-82
2023/08/24 08:15:01;;;;;;;0.10;0.10;;;21.20;99.90;;;;;;5045331;28;20188;-81
2023/08/24 08:17:30;;;;;;;0.10;0.10;;;21.30;99.90;;;;;;5042384;28;20178;-82
2023/08/24 08:19:56;;;;;;;0.10;0.10;;;21.30;99.90;;;;;;5044117;28;20940;-81
2023/08/24 08:22:22;;;;;;;0.10;0.10;;;21.50;99.90;;;;;;5044296;28;20210;-81
2023/08/24 08:24:48;;;;;;;0.10;0.10;;;21.50;99.90;;;;;;5046468;28;20177;-81
2023/08/24 08:27:13;;;;;;;0.10;0.10;;;21.60;99.90;;;;;;5060234;28;20243;-81
2023/08/24 08:29:39;;;;;;;0.10;0.10;;;21.80;99.90;;;;;;5044497;28;20182;-81
2023/08/24 08:32:05;;;;;;;0.10;0.10;;;21.90;99.90;;;;;;5043344;28;20244;-81
2023/08/24 08:34:31;;;;;;;0.10;0.10;;;22.20;99.90;;;;;;5042900;28;21027;-81
2023/08/24 08:36:57;;;;;;;0.10;0.10;;;22.40;99.90;;;;;;5044788;28;20185;-81
2023/08/24 08:39:22;;;;;;;0.10;0.10;;;22.60;99.90;;;;;;5046753;28;20182;-81
2023/08/24 08:41:49;;;;;;;0.10;0.10;;;22.60;99.90;;;;;;5045473;28;20675;-81
2023/08/24 08:44:15;;;;;;;0.10;0.10;;;22.90;99.90;;;;;;5045621;28;20198;-81
2023/08/24 08:46:42;;;;;;;0.10;0.10;;;23.30;99.90;;;;;;5052334;28;20680;-81
2023/08/24 08:49:09;;;;;;;0.10;0.10;;;23.30;99.90;;;;;;5045242;28;20196;-81
2023/08/24 08:51:38;;;;;;;0.10;0.10;;;23.50;99.90;;;;;;5045006;28;20220;-81
2023/08/24 08:54:05;;;;;;;0.10;0.10;;;24.00;99.90;;;;;;5042440;28;20212;-81
2023/08/24 08:56:31;;;;;;;0.10;0.10;;;23.80;99.90;;;;;;5044775;28;20186;-81
2023/08/24 08:59:01;;;;;;;0.10;0.10;;;24.00;99.90;;;;;;5045158;28;20181;-81
2023/08/24 09:01:28;;;;;;;0.10;0.10;;;23.90;99.90;;;;;;5045687;28;20208;-82
2023/08/24 09:03:54;;;;;;;0.10;0.10;;;24.10;99.90;;;;;;5042915;28;20204;-83
2023/08/24 09:06:20;;;;;;;0.10;0.10;;;24.30;99.90;;;;;;5043104;28;20186;-83
2023/08/24 09:08:47;;;;;;;0.10;0.10;;;24.80;99.90;;;;;;5042192;28;20204;-82
2023/08/24 09:11:14;;;;;;;0.10;0.10;;;25.30;99.90;;;;;;5040654;28;20221;-83
2023/08/24 09:13:39;;;;;;;0.10;0.10;;;25.60;99.90;;;;;;5058321;28;20182;-83
2023/08/24 09:16:06;;;;;;;0.10;0.10;;;25.50;99.90;;;;;;5044784;28;20209;-83
2023/08/24 09:18:39;;;;;;;0.10;0.10;;;25.60;99.90;;;;;;5046949;28;20269;-84
2023/08/24 09:21:12;;;;;;;0.10;0.10;;;25.70;99.90;;;;;;5041970;28;20194;-83
2023/08/24 09:23:47;;;;;;;0.10;0.10;;;26.10;99.90;;;;;;5044549;28;20186;-84
2023/08/24 09:26:13;;;;;;;0.10;0.10;;;26.50;99.90;;;;;;5044024;28;20525;-82
2023/08/24 09:28:42;;;;;;;0.10;0.10;;;26.40;99.90;;;;;;5047099;28;20193;-82
2023/08/24 09:31:08;;;;;;;0.10;0.10;;;25.90;99.90;;;;;;5038621;28;20213;-83
2023/08/24 09:33:35;;;;;;;0.10;0.10;;;26.10;99.90;;;;;;5043941;28;20196;-83
2023/08/24 09:36:01;;;;;;;0.10;0.10;;;26.10;99.90;;;;;;5062444;28;20201;-82
2023/08/24 09:38:28;;;;;;;0.10;0.10;;;25.80;99.90;;;;;;5046563;28;20170;-83
2023/08/24 09:40:55;;;;;;;0.10;0.10;;;26.10;99.90;;;;;;5046499;28;20196;-83
2023/08/24 09:43:21;;;;;;;0.10;0.10;;;26.30;99.90;;;;;;5045615;28;20227;-83
2023/08/24 09:45:50;;;;;;;0.10;0.10;;;26.00;99.90;;;;;;5044509;28;20186;-83
2023/08/24 09:48:16;;;;;;;0.10;0.10;;;25.80;99.90;;;;;;5046515;28;20190;-83
2023/08/24 09:50:45;;;;;;;0.10;0.10;;;26.10;99.90;;;;;;5047530;28;20209;-83
2023/08/24 09:53:23;;;;;;;0.10;0.10;;;26.20;99.90;;;;;;5047312;28;20201;-83
2023/08/24 09:56:02;;;;;;;0.10;0.10;;;26.30;99.90;;;;;;5047653;28;20185;-83
2023/08/24 09:58:28;;;;;;;0.10;0.10;;;26.50;99.90;;;;;;5049167;28;20724;-82
2023/08/24 10:00:55;;;;;;;0.10;0.10;;;27.00;99.90;;;;;;5047469;28;20201;-82
2023/08/24 10:03:24;;;;;;;0.10;0.10;;;27.30;99.90;;;;;;5045838;28;20206;-82
2023/08/24 10:05:59;;;;;;;0.10;0.10;;;27.70;99.90;;;;;;5044778;28;20190;-83
2023/08/24 10:08:28;;;;;;;0.10;0.10;;;27.90;99.90;;;;;;5045575;28;20207;-82
2023/08/24 10:10:58;;;;;;;0.10;0.10;;;27.60;99.90;;;;;;5044844;28;21400;-83
2023/08/24 10:13:35;;;;;;;0.10;0.10;;;27.60;99.90;;;;;;5047040;28;20198;-83
2023/08/24 10:16:02;;;;;;;0.10;0.10;;;28.40;99.90;;;;;;5042457;28;20922;-83
2023/08/24 10:18:28;;;;;;;0.10;0.10;;;28.60;99.90;;;;;;5043841;28;20186;-82
2023/08/24 10:20:55;;;;;;;0.10;0.10;;;29.10;99.90;;;;;;5043817;28;20347;-83
2023/08/24 10:23:22;;;;;;;0.10;0.10;;;29.30;99.90;;;;;;5052503;28;20205;-83
2023/08/24 10:25:50;;;;;;;0.10;0.10;;;29.00;99.90;;;;;;5046004;28;21221;-83
2023/08/24 10:28:17;;;;;;;0.10;0.10;;;28.10;99.90;;;;;;5058699;28;20250;-83
2023/08/24 10:30:44;;;;;;;0.10;0.10;;;28.30;99.90;;;;;;5042719;28;20220;-83
2023/08/24 10:33:11;;;;;;;0.10;0.10;;;27.90;99.90;;;;;;5045416;28;20544;-83
2023/08/24 10:35:38;;;;;;;0.10;0.10;;;27.70;99.90;;;;;;5044017;28;20209;-83
2023/08/24 10:38:05;;;;;;;0.10;0.10;;;27.40;99.90;;;;;;5041553;28;20550;-82
2023/08/24 10:40:32;;;;;;;0.10;0.10;;;27.70;99.90;;;;;;5043786;28;20188;-82
2023/08/24 10:43:01;;;;;;;0.10;0.10;;;28.50;99.90;;;;;;5045064;28;20209;-82
2023/08/24 10:45:47;;;;;;;0.10;0.10;;;28.40;99.90;;;;;;5044487;28;20192;-83
2023/08/24 10:48:12;;;;;;;0.10;0.10;;;28.90;99.90;;;;;;5043621;28;20201;-83
2023/08/24 10:50:38;;;;;;;0.10;0.10;;;28.20;99.90;;;;;;5045543;28;20214;-82
2023/08/24 10:53:10;;;;;;;0.10;0.10;;;28.60;99.90;;;;;;5044431;28;20213;-82
2023/08/24 10:55:37;;;;;;;0.10;0.10;;;28.70;99.90;;;;;;5047725;28;20158;-82
2023/08/24 10:58:03;;;;;;;0.10;0.10;;;29.20;99.90;;;;;;5046137;28;20334;-82
2023/08/24 11:00:29;;;;;;;0.10;0.10;;;29.20;99.90;;;;;;5061370;28;20227;-82
2023/08/24 11:02:56;;;;;;;0.10;0.10;;;29.20;99.90;;;;;;5044808;28;20210;-83
2023/08/24 11:05:30;;;;;;;0.10;0.10;;;29.70;99.90;;;;;;5060623;28;20283;-83
2023/08/24 11:07:56;;;;;;;0.10;0.10;;;30.00;99.90;;;;;;5044535;28;20525;-83
2023/08/24 11:10:30;;;;;;;0.10;0.10;;;29.60;99.90;;;;;;5045119;28;20221;-83
2023/08/24 11:13:02;;;;;;;0.10;0.10;;;29.40;99.90;;;;;;5044734;28;20216;-82
2023/08/24 11:15:32;;;;;;;0.10;0.10;;;30.00;99.90;;;;;;5043688;28;20215;-82
2023/08/24 11:18:27;;;;;;;0.10;0.10;;;30.40;99.90;;;;;;5053207;28;20194;-82
2023/08/24 11:21:01;;;;;;;0.10;0.10;;;29.10;99.90;;;;;;5044537;28;20189;-82
2023/08/24 11:23:27;;;;;;;0.10;0.10;;;28.60;99.90;;;;;;5053842;28;20320;-82
2023/08/24 11:25:56;;;;;;;0.10;0.10;;;29.10;99.90;;;;;;5046454;28;20276;-82
2023/08/24 11:28:23;;;;;;;0.10;0.10;;;29.70;99.90;;;;;;5046742;28;20269;-83
2023/08/24 11:30:50;;;;;;;0.35;0.35;;;28.60;99.90;;;;;;5050893;28;20716;-82
2023/08/24 11:33:20;;;;;;;0.10;0.10;;;29.00;99.90;;;;;;5043934;28;20229;-82
2023/08/24 11:35:46;;;;;;;0.10;0.10;;;28.90;99.90;;;;;;5041236;28;20193;-83
2023/08/24 11:38:12;;;;;;;0.10;0.10;;;28.80;99.90;;;;;;5043286;28;20189;-82
2023/08/24 11:40:39;;;;;;;0.10;0.10;;;28.80;99.90;;;;;;5042254;28;20200;-83
2023/08/24 11:43:07;;;;;;;0.10;0.10;;;28.70;99.90;;;;;;5044740;28;20216;-83
2023/08/24 11:45:36;;;;;;;0.10;0.10;;;28.80;99.90;;;;;;5043062;28;20222;-82
2023/08/24 11:48:06;;;;;;;0.10;0.10;;;28.80;99.90;;;;;;5043946;28;20216;-83
2023/08/24 11:50:34;;;;;;;0.10;0.10;;;29.40;99.90;;;;;;5047165;28;20212;-82
2023/08/24 11:53:01;;;;;;;0.10;0.10;;;29.30;99.90;;;;;;5045826;28;21006;-83
2023/08/24 11:55:26;;;;;;;0.10;0.10;;;28.60;99.90;;;;;;5046626;28;20216;-83
2023/08/24 11:57:53;;;;;;;0.10;0.10;;;28.70;99.90;;;;;;5044191;28;20213;-82
2023/08/24 12:00:21;;;;;;;0.10;0.10;;;28.80;99.90;;;;;;5042904;28;20204;-82
2023/08/24 12:02:47;;;;;;;0.10;0.10;;;28.60;99.90;;;;;;5045628;28;20201;-83
2023/08/24 12:05:23;;;;;;;0.10;0.10;;;28.30;99.90;;;;;;5043602;28;20186;-82
2023/08/24 12:07:50;;;;;;;0.10;0.10;;;28.50;99.90;;;;;;5044876;28;20670;-82
2023/08/24 12:10:16;;;;;;;0.10;0.10;;;28.70;99.90;;;;;;5041937;28;20185;-83
2023/08/24 12:12:41;;;;;;;0.10;0.10;;;28.80;99.90;;;;;;5042479;28;20205;-82
2023/08/24 12:15:07;;;;;;;0.10;0.10;;;28.60;99.90;;;;;;5042594;28;20182;-82
2023/08/24 12:17:43;;;;;;;0.10;0.10;;;28.90;99.90;;;;;;5042050;28;20268;-82
2023/08/24 12:20:19;;;;;;;0.10;0.10;;;29.20;99.90;;;;;;5041880;28;20655;-82
2023/08/24 12:22:54;;;;;;;0.10;0.10;;;29.20;99.90;;;;;;5044461;28;20208;-83
2023/08/24 12:25:23;;;;;;;0.10;0.10;;;29.00;99.90;;;;;;5043583;28;20259;-82
2023/08/24 12:27:51;;;;;;;0.10;0.10;;;28.90;99.90;;;;;;5042210;28;20209;-82
2023/08/24 12:30:17;;;;;;;0.10;0.10;;;28.60;99.90;;;;;;5042949;28;20177;-82
2023/08/24 12:32:47;;;;;;;0.10;0.10;;;28.60;99.90;;;;;;5043577;28;21142;-83
2023/08/24 12:35:15;;;;;;;0.10;0.10;;;28.60;99.90;;;;;;5060729;28;20182;-83
2023/08/24 12:37:40;;;;;;;0.10;0.10;;;28.60;99.90;;;;;;5043025;28;20178;-83
2023/08/24 12:40:07;;;;;;;0.10;0.10;;;28.60;99.90;;;;;;5042225;28;20651;-82
2023/08/24 12:42:33;;;;;;;0.10;0.10;;;28.50;99.90;;;;;;5043045;28;20212;-82
2023/08/24 12:44:59;;;;;;;0.10;0.10;;;28.80;99.90;;;;;;5043984;28;20186;-82
2023/08/24 12:47:25;;;;;;;0.10;0.10;;;28.70;99.90;;;;;;5043152;28;20273;-82